sensor_id;sensor_type;location;lat;lon;timestamp;P1;durP1;ratioP1;P2;durP2;ratioP2
12871;SDS011;6504;53.766;9.626;2022-10-19T00:00:49;4.30;;;0.90;;
12871;SDS011;6504;53.766;9.626;2022-10-19T00:03:18;4.80;;;1.00;;
12871;SDS011;6504;53.766;9.626;2022-10-19T00:05:48;3.87;;;1.23;;
12871;SDS011;6504;53.766;9.626;2022-10-19T00:08:16;4.73;;;1.00;;
12871;SDS011;6504;53.766;9.626;2022-10-19T00:10:44;4.50;;;0.90;;
12871;SDS011;6504;53.766;9.626;2022-10-19T00:13:14;5.07;;;1.23;;
12871;SDS011;6504;53.766;9.626;2022-10-19T00:15:42;2.50;;;1.00;;
12871;SDS011;6504;53.766;9.626;2022-10-19T00:18:10;3.23;;;0.80;;
12871;SDS011;6504;53.766;9.626;2022-10-19T00:20:38;2.23;;;0.80;;
12871;SDS011;6504;53.766;9.626;2022-10-19T00:23:07;2.37;;;0.80;;
12871;SDS011;6504;53.766;9.626;2022-10-19T00:25:35;3.13;;;0.70;;
12871;SDS011;6504;53.766;9.626;2022-10-19T00:28:03;1.50;;;0.83;;
12871;SDS011;6504;53.766;9.626;2022-10-19T00:30:36;2.33;;;0.90;;
12871;SDS011;6504;53.766;9.626;2022-10-19T00:33:04;1.77;;;0.90;;
12871;SDS011;6504;53.766;9.626;2022-10-19T00:35:32;1.80;;;0.93;;
12871;SDS011;6504;53.766;9.626;2022-10-19T00:38:00;2.47;;;0.80;;
12871;SDS011;6504;53.766;9.626;2022-10-19T00:40:28;1.40;;;0.87;;
12871;SDS011;6504;53.766;9.626;2022-10-19T00:42:56;3.03;;;0.97;;
12871;SDS011;6504;53.766;9.626;2022-10-19T00:45:24;3.40;;;1.00;;
12871;SDS011;6504;53.766;9.626;2022-10-19T00:47:53;1.77;;;0.97;;
12871;SDS011;6504;53.766;9.626;2022-10-19T00:50:22;3.03;;;1.10;;
12871;SDS011;6504;53.766;9.626;2022-10-19T00:52:50;4.93;;;1.10;;
12871;SDS011;6504;53.766;9.626;2022-10-19T00:55:18;4.63;;;0.90;;
12871;SDS011;6504;53.766;9.626;2022-10-19T00:57:46;2.23;;;0.90;;
12871;SDS011;6504;53.766;9.626;2022-10-19T01:00:14;5.73;;;1.20;;
12871;SDS011;6504;53.766;9.626;2022-10-19T01:02:42;4.90;;;1.50;;
12871;SDS011;6504;53.766;9.626;2022-10-19T01:05:11;5.00;;;1.10;;
12871;SDS011;6504;53.766;9.626;2022-10-19T01:07:40;3.80;;;1.20;;
12871;SDS011;6504;53.766;9.626;2022-10-19T01:10:08;3.00;;;1.40;;
12871;SDS011;6504;53.766;9.626;2022-10-19T01:12:42;4.40;;;1.20;;
12871;SDS011;6504;53.766;9.626;2022-10-19T01:15:27;3.00;;;1.23;;
12871;SDS011;6504;53.766;9.626;2022-10-19T01:18:03;5.97;;;1.70;;
12871;SDS011;6504;53.766;9.626;2022-10-19T01:20:42;4.17;;;1.20;;
12871;SDS011;6504;53.766;9.626;2022-10-19T01:26:54;5.10;;;1.40;;
12871;SDS011;6504;53.766;9.626;2022-10-19T01:35:31;5.13;;;1.50;;
12871;SDS011;6504;53.766;9.626;2022-10-19T01:38:11;4.97;;;1.40;;
12871;SDS011;6504;53.766;9.626;2022-10-19T01:40:51;6.13;;;1.67;;
12871;SDS011;6504;53.766;9.626;2022-10-19T01:43:27;6.53;;;1.50;;
12871;SDS011;6504;53.766;9.626;2022-10-19T01:46:02;4.67;;;1.80;;
12871;SDS011;6504;53.766;9.626;2022-10-19T01:48:35;5.43;;;1.40;;
12871;SDS011;6504;53.766;9.626;2022-10-19T01:51:09;4.33;;;1.53;;
12871;SDS011;6504;53.766;9.626;2022-10-19T01:53:41;6.50;;;2.23;;
12871;SDS011;6504;53.766;9.626;2022-10-19T01:56:13;4.47;;;1.27;;
12871;SDS011;6504;53.766;9.626;2022-10-19T01:58:46;6.47;;;1.63;;
12871;SDS011;6504;53.766;9.626;2022-10-19T02:01:16;5.03;;;1.60;;
12871;SDS011;6504;53.766;9.626;2022-10-19T02:03:46;6.37;;;1.83;;
12871;SDS011;6504;53.766;9.626;2022-10-19T02:06:15;3.67;;;1.33;;
12871;SDS011;6504;53.766;9.626;2022-10-19T02:08:44;6.87;;;1.83;;
12871;SDS011;6504;53.766;9.626;2022-10-19T02:11:14;5.17;;;1.40;;
12871;SDS011;6504;53.766;9.626;2022-10-19T02:13:42;8.60;;;1.77;;
12871;SDS011;6504;53.766;9.626;2022-10-19T02:16:13;5.83;;;1.53;;
12871;SDS011;6504;53.766;9.626;2022-10-19T02:18:47;6.40;;;1.63;;
12871;SDS011;6504;53.766;9.626;2022-10-19T02:21:17;5.87;;;1.53;;
12871;SDS011;6504;53.766;9.626;2022-10-19T02:23:45;5.40;;;2.17;;
12871;SDS011;6504;53.766;9.626;2022-10-19T02:26:17;6.03;;;1.70;;
12871;SDS011;6504;53.766;9.626;2022-10-19T02:28:45;6.07;;;1.60;;
12871;SDS011;6504;53.766;9.626;2022-10-19T02:31:13;4.27;;;1.53;;
12871;SDS011;6504;53.766;9.626;2022-10-19T02:33:43;5.33;;;1.43;;
12871;SDS011;6504;53.766;9.626;2022-10-19T02:36:11;4.20;;;1.20;;
12871;SDS011;6504;53.766;9.626;2022-10-19T02:38:39;6.07;;;1.57;;
12871;SDS011;6504;53.766;9.626;2022-10-19T02:41:10;7.20;;;1.63;;
12871;SDS011;6504;53.766;9.626;2022-10-19T02:43:44;2.87;;;1.30;;
12871;SDS011;6504;53.766;9.626;2022-10-19T02:46:18;3.70;;;1.30;;
12871;SDS011;6504;53.766;9.626;2022-10-19T02:48:51;4.93;;;1.20;;
12871;SDS011;6504;53.766;9.626;2022-10-19T02:51:29;2.47;;;1.10;;
12871;SDS011;6504;53.766;9.626;2022-10-19T02:53:59;5.70;;;1.70;;
12871;SDS011;6504;53.766;9.626;2022-10-19T02:56:30;4.80;;;1.50;;
12871;SDS011;6504;53.766;9.626;2022-10-19T02:59:00;6.87;;;1.50;;
12871;SDS011;6504;53.766;9.626;2022-10-19T03:01:30;5.37;;;1.70;;
12871;SDS011;6504;53.766;9.626;2022-10-19T03:03:58;5.67;;;1.40;;
12871;SDS011;6504;53.766;9.626;2022-10-19T03:06:26;4.40;;;1.50;;
12871;SDS011;6504;53.766;9.626;2022-10-19T03:08:54;3.87;;;1.20;;
12871;SDS011;6504;53.766;9.626;2022-10-19T03:11:22;7.53;;;1.47;;
12871;SDS011;6504;53.766;9.626;2022-10-19T03:13:50;4.00;;;1.13;;
12871;SDS011;6504;53.766;9.626;2022-10-19T03:16:18;5.53;;;1.37;;
12871;SDS011;6504;53.766;9.626;2022-10-19T03:18:48;4.30;;;1.50;;
12871;SDS011;6504;53.766;9.626;2022-10-19T03:21:16;4.67;;;1.33;;
12871;SDS011;6504;53.766;9.626;2022-10-19T03:23:45;5.40;;;1.43;;
12871;SDS011;6504;53.766;9.626;2022-10-19T03:26:13;6.23;;;1.37;;
12871;SDS011;6504;53.766;9.626;2022-10-19T03:28:43;5.80;;;1.43;;
12871;SDS011;6504;53.766;9.626;2022-10-19T03:31:11;6.17;;;1.70;;
12871;SDS011;6504;53.766;9.626;2022-10-19T03:33:39;5.87;;;1.60;;
12871;SDS011;6504;53.766;9.626;2022-10-19T03:36:15;3.97;;;1.27;;
12871;SDS011;6504;53.766;9.626;2022-10-19T03:38:48;3.83;;;1.30;;
12871;SDS011;6504;53.766;9.626;2022-10-19T03:41:17;4.13;;;1.20;;
12871;SDS011;6504;53.766;9.626;2022-10-19T03:43:46;3.13;;;1.47;;
12871;SDS011;6504;53.766;9.626;2022-10-19T03:46:14;4.00;;;1.33;;
12871;SDS011;6504;53.766;9.626;2022-10-19T03:48:43;4.47;;;1.40;;
12871;SDS011;6504;53.766;9.626;2022-10-19T03:51:12;3.43;;;1.20;;
12871;SDS011;6504;53.766;9.626;2022-10-19T03:53:43;3.87;;;1.67;;
12871;SDS011;6504;53.766;9.626;2022-10-19T03:56:12;5.10;;;1.40;;
12871;SDS011;6504;53.766;9.626;2022-10-19T03:58:42;5.13;;;1.50;;
12871;SDS011;6504;53.766;9.626;2022-10-19T04:01:12;3.17;;;1.10;;
12871;SDS011;6504;53.766;9.626;2022-10-19T04:03:41;5.43;;;1.43;;
12871;SDS011;6504;53.766;9.626;2022-10-19T04:06:10;5.83;;;1.30;;
12871;SDS011;6504;53.766;9.626;2022-10-19T04:08:48;6.67;;;1.63;;
12871;SDS011;6504;53.766;9.626;2022-10-19T04:11:17;3.20;;;1.40;;
12871;SDS011;6504;53.766;9.626;2022-10-19T04:13:48;5.73;;;1.30;;
12871;SDS011;6504;53.766;9.626;2022-10-19T04:16:17;3.17;;;1.23;;
12871;SDS011;6504;53.766;9.626;2022-10-19T04:18:46;6.30;;;1.80;;
12871;SDS011;6504;53.766;9.626;2022-10-19T04:21:18;4.27;;;1.37;;
12871;SDS011;6504;53.766;9.626;2022-10-19T04:23:50;6.30;;;1.50;;
12871;SDS011;6504;53.766;9.626;2022-10-19T04:26:19;6.40;;;1.50;;
12871;SDS011;6504;53.766;9.626;2022-10-19T04:28:47;3.70;;;1.30;;
12871;SDS011;6504;53.766;9.626;2022-10-19T04:31:15;4.63;;;1.60;;
12871;SDS011;6504;53.766;9.626;2022-10-19T04:33:43;6.50;;;1.87;;
12871;SDS011;6504;53.766;9.626;2022-10-19T04:36:16;4.23;;;1.23;;
12871;SDS011;6504;53.766;9.626;2022-10-19T04:38:44;4.90;;;1.73;;
12871;SDS011;6504;53.766;9.626;2022-10-19T04:41:14;9.93;;;1.93;;
12871;SDS011;6504;53.766;9.626;2022-10-19T04:43:44;6.20;;;1.70;;
12871;SDS011;6504;53.766;9.626;2022-10-19T04:46:13;3.97;;;1.80;;
12871;SDS011;6504;53.766;9.626;2022-10-19T04:48:43;6.23;;;1.80;;
12871;SDS011;6504;53.766;9.626;2022-10-19T04:51:12;6.70;;;1.50;;
12871;SDS011;6504;53.766;9.626;2022-10-19T04:53:41;6.40;;;1.50;;
12871;SDS011;6504;53.766;9.626;2022-10-19T04:56:10;6.10;;;1.47;;
12871;SDS011;6504;53.766;9.626;2022-10-19T04:58:42;5.07;;;1.20;;
12871;SDS011;6504;53.766;9.626;2022-10-19T05:01:11;6.43;;;1.50;;
12871;SDS011;6504;53.766;9.626;2022-10-19T05:03:40;4.80;;;1.60;;
12871;SDS011;6504;53.766;9.626;2022-10-19T05:06:08;4.47;;;1.27;;
12871;SDS011;6504;53.766;9.626;2022-10-19T05:08:37;4.20;;;1.50;;
12871;SDS011;6504;53.766;9.626;2022-10-19T05:11:07;3.67;;;1.33;;
12871;SDS011;6504;53.766;9.626;2022-10-19T05:13:36;3.63;;;1.40;;
12871;SDS011;6504;53.766;9.626;2022-10-19T05:16:06;6.10;;;2.00;;
12871;SDS011;6504;53.766;9.626;2022-10-19T05:18:37;5.00;;;1.33;;
12871;SDS011;6504;53.766;9.626;2022-10-19T05:21:06;5.47;;;1.53;;
12871;SDS011;6504;53.766;9.626;2022-10-19T05:23:36;4.90;;;1.73;;
12871;SDS011;6504;53.766;9.626;2022-10-19T05:26:05;5.50;;;1.50;;
12871;SDS011;6504;53.766;9.626;2022-10-19T05:28:35;5.93;;;1.70;;
12871;SDS011;6504;53.766;9.626;2022-10-19T05:31:04;5.17;;;1.80;;
12871;SDS011;6504;53.766;9.626;2022-10-19T05:33:35;6.20;;;1.77;;
12871;SDS011;6504;53.766;9.626;2022-10-19T05:36:11;9.23;;;2.00;;
12871;SDS011;6504;53.766;9.626;2022-10-19T05:38:40;3.50;;;1.60;;
12871;SDS011;6504;53.766;9.626;2022-10-19T05:41:08;5.07;;;1.70;;
12871;SDS011;6504;53.766;9.626;2022-10-19T05:43:37;4.67;;;1.70;;
12871;SDS011;6504;53.766;9.626;2022-10-19T05:46:08;7.37;;;1.73;;
12871;SDS011;6504;53.766;9.626;2022-10-19T05:48:38;5.33;;;1.67;;
12871;SDS011;6504;53.766;9.626;2022-10-19T05:51:07;4.63;;;1.70;;
12871;SDS011;6504;53.766;9.626;2022-10-19T05:53:38;6.23;;;1.73;;
12871;SDS011;6504;53.766;9.626;2022-10-19T05:56:07;6.33;;;1.57;;
12871;SDS011;6504;53.766;9.626;2022-10-19T05:58:39;4.43;;;1.50;;
12871;SDS011;6504;53.766;9.626;2022-10-19T06:01:08;5.80;;;1.53;;
12871;SDS011;6504;53.766;9.626;2022-10-19T06:03:37;4.93;;;1.80;;
12871;SDS011;6504;53.766;9.626;2022-10-19T06:06:05;6.23;;;1.50;;
12871;SDS011;6504;53.766;9.626;2022-10-19T06:08:37;5.70;;;2.17;;
12871;SDS011;6504;53.766;9.626;2022-10-19T06:11:06;4.53;;;2.00;;
12871;SDS011;6504;53.766;9.626;2022-10-19T06:13:36;7.27;;;1.83;;
12871;SDS011;6504;53.766;9.626;2022-10-19T06:16:06;6.07;;;1.73;;
12871;SDS011;6504;53.766;9.626;2022-10-19T06:18:36;7.67;;;1.93;;
12871;SDS011;6504;53.766;9.626;2022-10-19T06:21:06;5.67;;;1.90;;
12871;SDS011;6504;53.766;9.626;2022-10-19T06:23:37;7.67;;;1.83;;
12871;SDS011;6504;53.766;9.626;2022-10-19T06:26:11;7.37;;;2.00;;
12871;SDS011;6504;53.766;9.626;2022-10-19T06:28:41;6.17;;;1.90;;
12871;SDS011;6504;53.766;9.626;2022-10-19T06:31:10;6.77;;;1.80;;
12871;SDS011;6504;53.766;9.626;2022-10-19T06:33:41;5.63;;;2.10;;
12871;SDS011;6504;53.766;9.626;2022-10-19T06:36:15;8.77;;;2.80;;
12871;SDS011;6504;53.766;9.626;2022-10-19T06:38:45;4.97;;;2.00;;
12871;SDS011;6504;53.766;9.626;2022-10-19T06:41:13;4.07;;;1.80;;
12871;SDS011;6504;53.766;9.626;2022-10-19T06:43:41;6.40;;;1.90;;
12871;SDS011;6504;53.766;9.626;2022-10-19T06:46:11;6.63;;;1.60;;
12871;SDS011;6504;53.766;9.626;2022-10-19T06:48:47;6.00;;;1.90;;
12871;SDS011;6504;53.766;9.626;2022-10-19T06:51:16;6.70;;;2.00;;
12871;SDS011;6504;53.766;9.626;2022-10-19T06:53:44;6.77;;;1.80;;
12871;SDS011;6504;53.766;9.626;2022-10-19T06:56:16;4.47;;;1.97;;
12871;SDS011;6504;53.766;9.626;2022-10-19T06:58:48;7.90;;;1.80;;
12871;SDS011;6504;53.766;9.626;2022-10-19T07:01:24;4.83;;;1.70;;
12871;SDS011;6504;53.766;9.626;2022-10-19T07:03:59;7.23;;;2.17;;
12871;SDS011;6504;53.766;9.626;2022-10-19T07:06:29;8.03;;;2.03;;
12871;SDS011;6504;53.766;9.626;2022-10-19T07:08:58;5.07;;;1.90;;
12871;SDS011;6504;53.766;9.626;2022-10-19T07:11:32;6.23;;;2.00;;
12871;SDS011;6504;53.766;9.626;2022-10-19T07:14:11;9.00;;;2.50;;
12871;SDS011;6504;53.766;9.626;2022-10-19T07:16:41;8.40;;;2.23;;
12871;SDS011;6504;53.766;9.626;2022-10-19T07:19:12;8.47;;;2.07;;
12871;SDS011;6504;53.766;9.626;2022-10-19T07:21:41;6.23;;;2.30;;
12871;SDS011;6504;53.766;9.626;2022-10-19T07:24:10;6.20;;;2.20;;
12871;SDS011;6504;53.766;9.626;2022-10-19T07:26:38;6.17;;;2.00;;
12871;SDS011;6504;53.766;9.626;2022-10-19T07:29:06;9.10;;;2.40;;
12871;SDS011;6504;53.766;9.626;2022-10-19T07:31:34;6.43;;;2.17;;
12871;SDS011;6504;53.766;9.626;2022-10-19T07:34:03;7.93;;;2.50;;
12871;SDS011;6504;53.766;9.626;2022-10-19T07:36:33;5.37;;;1.90;;
12871;SDS011;6504;53.766;9.626;2022-10-19T07:39:02;6.60;;;2.17;;
12871;SDS011;6504;53.766;9.626;2022-10-19T07:41:31;8.93;;;1.97;;
12871;SDS011;6504;53.766;9.626;2022-10-19T07:44:00;6.83;;;2.17;;
12871;SDS011;6504;53.766;9.626;2022-10-19T07:46:29;9.43;;;2.40;;
12871;SDS011;6504;53.766;9.626;2022-10-19T07:48:59;7.63;;;2.30;;
12871;SDS011;6504;53.766;9.626;2022-10-19T07:51:28;7.57;;;2.50;;
12871;SDS011;6504;53.766;9.626;2022-10-19T07:53:57;7.50;;;2.00;;
12871;SDS011;6504;53.766;9.626;2022-10-19T07:56:26;7.07;;;2.10;;
12871;SDS011;6504;53.766;9.626;2022-10-19T07:58:55;9.17;;;2.30;;
12871;SDS011;6504;53.766;9.626;2022-10-19T08:01:25;6.33;;;2.20;;
12871;SDS011;6504;53.766;9.626;2022-10-19T08:03:55;6.53;;;1.90;;
12871;SDS011;6504;53.766;9.626;2022-10-19T08:06:45;6.10;;;1.97;;
12871;SDS011;6504;53.766;9.626;2022-10-19T08:09:14;6.10;;;2.30;;
12871;SDS011;6504;53.766;9.626;2022-10-19T08:12:02;6.87;;;1.83;;
12871;SDS011;6504;53.766;9.626;2022-10-19T08:14:31;5.93;;;2.10;;
12871;SDS011;6504;53.766;9.626;2022-10-19T08:16:59;7.23;;;2.07;;
12871;SDS011;6504;53.766;9.626;2022-10-19T08:19:27;8.17;;;2.20;;
12871;SDS011;6504;53.766;9.626;2022-10-19T08:21:56;11.23;;;2.70;;
12871;SDS011;6504;53.766;9.626;2022-10-19T08:24:26;8.20;;;2.00;;
12871;SDS011;6504;53.766;9.626;2022-10-19T08:26:54;6.70;;;1.83;;
12871;SDS011;6504;53.766;9.626;2022-10-19T08:29:23;6.43;;;2.10;;
12871;SDS011;6504;53.766;9.626;2022-10-19T08:31:56;4.50;;;1.50;;
12871;SDS011;6504;53.766;9.626;2022-10-19T08:34:25;5.17;;;1.90;;
12871;SDS011;6504;53.766;9.626;2022-10-19T08:36:53;5.33;;;2.03;;
12871;SDS011;6504;53.766;9.626;2022-10-19T08:39:21;6.03;;;1.70;;
12871;SDS011;6504;53.766;9.626;2022-10-19T08:41:54;5.13;;;1.83;;
12871;SDS011;6504;53.766;9.626;2022-10-19T08:44:29;6.07;;;1.63;;
12871;SDS011;6504;53.766;9.626;2022-10-19T08:47:15;5.23;;;1.50;;
12871;SDS011;6504;53.766;9.626;2022-10-19T08:49:51;6.30;;;1.90;;
12871;SDS011;6504;53.766;9.626;2022-10-19T08:52:20;2.77;;;1.50;;
12871;SDS011;6504;53.766;9.626;2022-10-19T08:54:58;5.07;;;1.60;;
12871;SDS011;6504;53.766;9.626;2022-10-19T08:57:33;7.07;;;1.70;;
12871;SDS011;6504;53.766;9.626;2022-10-19T09:00:08;4.77;;;1.60;;
12871;SDS011;6504;53.766;9.626;2022-10-19T09:02:52;4.60;;;1.40;;
12871;SDS011;6504;53.766;9.626;2022-10-19T09:05:30;5.70;;;1.60;;
12871;SDS011;6504;53.766;9.626;2022-10-19T09:08:04;5.60;;;1.53;;
12871;SDS011;6504;53.766;9.626;2022-10-19T09:10:37;6.80;;;1.67;;
12871;SDS011;6504;53.766;9.626;2022-10-19T09:13:08;7.33;;;1.60;;
12871;SDS011;6504;53.766;9.626;2022-10-19T09:15:43;4.97;;;1.20;;
12871;SDS011;6504;53.766;9.626;2022-10-19T09:18:12;4.27;;;1.60;;
12871;SDS011;6504;53.766;9.626;2022-10-19T09:20:46;4.53;;;1.40;;
12871;SDS011;6504;53.766;9.626;2022-10-19T09:23:19;2.10;;;1.30;;
12871;SDS011;6504;53.766;9.626;2022-10-19T09:25:48;3.67;;;1.43;;
12871;SDS011;6504;53.766;9.626;2022-10-19T09:28:22;5.90;;;1.93;;
12871;SDS011;6504;53.766;9.626;2022-10-19T09:31:05;6.07;;;1.50;;
12871;SDS011;6504;53.766;9.626;2022-10-19T09:33:37;5.07;;;2.13;;
12871;SDS011;6504;53.766;9.626;2022-10-19T09:36:07;4.63;;;1.60;;
12871;SDS011;6504;53.766;9.626;2022-10-19T09:38:52;3.77;;;1.40;;
12871;SDS011;6504;53.766;9.626;2022-10-19T09:41:20;6.30;;;1.97;;
12871;SDS011;6504;53.766;9.626;2022-10-19T09:43:51;4.37;;;1.73;;
12871;SDS011;6504;53.766;9.626;2022-10-19T09:46:25;8.13;;;2.00;;
12871;SDS011;6504;53.766;9.626;2022-10-19T09:49:04;5.20;;;1.67;;
12871;SDS011;6504;53.766;9.626;2022-10-19T09:51:40;4.33;;;1.30;;
12871;SDS011;6504;53.766;9.626;2022-10-19T09:54:25;4.73;;;1.50;;
12871;SDS011;6504;53.766;9.626;2022-10-19T09:56:59;5.33;;;1.50;;
12871;SDS011;6504;53.766;9.626;2022-10-19T09:59:30;7.03;;;1.67;;
12871;SDS011;6504;53.766;9.626;2022-10-19T10:02:13;6.60;;;1.73;;
12871;SDS011;6504;53.766;9.626;2022-10-19T10:04:46;7.03;;;1.73;;
12871;SDS011;6504;53.766;9.626;2022-10-19T10:07:21;4.83;;;1.80;;
12871;SDS011;6504;53.766;9.626;2022-10-19T10:09:55;4.33;;;1.47;;
12871;SDS011;6504;53.766;9.626;2022-10-19T10:12:24;4.30;;;1.63;;
12871;SDS011;6504;53.766;9.626;2022-10-19T10:14:54;3.70;;;1.77;;
12871;SDS011;6504;53.766;9.626;2022-10-19T10:17:25;6.73;;;1.83;;
12871;SDS011;6504;53.766;9.626;2022-10-19T10:20:04;4.90;;;1.60;;
12871;SDS011;6504;53.766;9.626;2022-10-19T10:22:50;6.47;;;1.80;;
12871;SDS011;6504;53.766;9.626;2022-10-19T10:25:23;6.20;;;1.90;;
12871;SDS011;6504;53.766;9.626;2022-10-19T10:27:54;5.40;;;1.37;;
12871;SDS011;6504;53.766;9.626;2022-10-19T10:30:26;3.80;;;1.20;;
12871;SDS011;6504;53.766;9.626;2022-10-19T10:32:58;7.37;;;1.70;;
12871;SDS011;6504;53.766;9.626;2022-10-19T10:35:46;6.87;;;1.80;;
12871;SDS011;6504;53.766;9.626;2022-10-19T10:38:20;7.00;;;1.40;;
12871;SDS011;6504;53.766;9.626;2022-10-19T10:40:51;5.50;;;1.90;;
12871;SDS011;6504;53.766;9.626;2022-10-19T10:43:25;4.73;;;1.57;;
12871;SDS011;6504;53.766;9.626;2022-10-19T10:46:00;6.30;;;1.70;;
12871;SDS011;6504;53.766;9.626;2022-10-19T10:48:35;3.97;;;1.60;;
12871;SDS011;6504;53.766;9.626;2022-10-19T10:51:07;4.60;;;1.57;;
12871;SDS011;6504;53.766;9.626;2022-10-19T10:53:46;3.87;;;1.60;;
12871;SDS011;6504;53.766;9.626;2022-10-19T10:56:21;5.33;;;1.57;;
12871;SDS011;6504;53.766;9.626;2022-10-19T10:58:53;5.43;;;1.50;;
12871;SDS011;6504;53.766;9.626;2022-10-19T11:01:27;5.73;;;1.57;;
12871;SDS011;6504;53.766;9.626;2022-10-19T11:03:59;5.27;;;1.50;;
12871;SDS011;6504;53.766;9.626;2022-10-19T11:06:31;3.93;;;1.40;;
12871;SDS011;6504;53.766;9.626;2022-10-19T11:09:11;6.13;;;1.80;;
12871;SDS011;6504;53.766;9.626;2022-10-19T11:11:45;5.23;;;1.90;;
12871;SDS011;6504;53.766;9.626;2022-10-19T11:14:21;10.00;;;2.50;;
12871;SDS011;6504;53.766;9.626;2022-10-19T11:16:58;5.83;;;1.70;;
12871;SDS011;6504;53.766;9.626;2022-10-19T11:19:32;8.13;;;2.67;;
12871;SDS011;6504;53.766;9.626;2022-10-19T11:22:05;6.53;;;1.97;;
12871;SDS011;6504;53.766;9.626;2022-10-19T11:24:42;5.03;;;1.73;;
12871;SDS011;6504;53.766;9.626;2022-10-19T11:27:23;6.30;;;1.70;;
12871;SDS011;6504;53.766;9.626;2022-10-19T11:30:02;6.03;;;1.60;;
12871;SDS011;6504;53.766;9.626;2022-10-19T11:32:48;5.63;;;1.47;;
12871;SDS011;6504;53.766;9.626;2022-10-19T11:35:25;5.53;;;1.70;;
12871;SDS011;6504;53.766;9.626;2022-10-19T11:38:09;5.90;;;1.67;;
12871;SDS011;6504;53.766;9.626;2022-10-19T11:40:58;6.57;;;1.60;;
12871;SDS011;6504;53.766;9.626;2022-10-19T11:43:52;4.97;;;1.53;;
12871;SDS011;6504;53.766;9.626;2022-10-19T11:46:40;5.03;;;1.83;;
12871;SDS011;6504;53.766;9.626;2022-10-19T11:49:20;4.90;;;1.60;;
12871;SDS011;6504;53.766;9.626;2022-10-19T11:52:00;2.70;;;1.43;;
12871;SDS011;6504;53.766;9.626;2022-10-19T11:54:35;4.33;;;1.50;;
12871;SDS011;6504;53.766;9.626;2022-10-19T11:57:11;4.37;;;1.63;;
12871;SDS011;6504;53.766;9.626;2022-10-19T11:59:46;4.43;;;1.43;;
12871;SDS011;6504;53.766;9.626;2022-10-19T12:02:53;4.33;;;1.30;;
12871;SDS011;6504;53.766;9.626;2022-10-19T12:05:34;5.50;;;1.33;;
12871;SDS011;6504;53.766;9.626;2022-10-19T12:08:15;2.60;;;1.40;;
12871;SDS011;6504;53.766;9.626;2022-10-19T12:10:51;3.83;;;1.30;;
12871;SDS011;6504;53.766;9.626;2022-10-19T12:13:26;4.43;;;1.40;;
12871;SDS011;6504;53.766;9.626;2022-10-19T12:16:06;4.20;;;1.50;;
12871;SDS011;6504;53.766;9.626;2022-10-19T12:18:37;4.43;;;1.60;;
12871;SDS011;6504;53.766;9.626;2022-10-19T12:21:10;5.00;;;1.30;;
12871;SDS011;6504;53.766;9.626;2022-10-19T12:23:43;3.33;;;1.40;;
12871;SDS011;6504;53.766;9.626;2022-10-19T12:26:13;3.23;;;1.40;;
12871;SDS011;6504;53.766;9.626;2022-10-19T12:28:45;3.67;;;1.13;;
12871;SDS011;6504;53.766;9.626;2022-10-19T12:31:16;2.43;;;1.13;;
12871;SDS011;6504;53.766;9.626;2022-10-19T12:33:46;4.27;;;1.40;;
12871;SDS011;6504;53.766;9.626;2022-10-19T12:36:27;1.67;;;0.93;;
12871;SDS011;6504;53.766;9.626;2022-10-19T12:39:03;3.67;;;1.20;;
12871;SDS011;6504;53.766;9.626;2022-10-19T12:41:38;3.03;;;1.20;;
12871;SDS011;6504;53.766;9.626;2022-10-19T12:44:16;3.87;;;1.33;;
12871;SDS011;6504;53.766;9.626;2022-10-19T12:46:57;5.60;;;1.33;;
12871;SDS011;6504;53.766;9.626;2022-10-19T12:49:34;3.80;;;1.30;;
12871;SDS011;6504;53.766;9.626;2022-10-19T12:52:15;2.73;;;1.20;;
12871;SDS011;6504;53.766;9.626;2022-10-19T12:55:08;3.33;;;1.33;;
12871;SDS011;6504;53.766;9.626;2022-10-19T12:57:39;2.53;;;1.27;;
12871;SDS011;6504;53.766;9.626;2022-10-19T13:00:17;3.33;;;1.20;;
12871;SDS011;6504;53.766;9.626;2022-10-19T13:02:54;3.83;;;1.40;;
12871;SDS011;6504;53.766;9.626;2022-10-19T13:05:24;2.80;;;1.30;;
12871;SDS011;6504;53.766;9.626;2022-10-19T13:07:56;3.63;;;1.60;;
12871;SDS011;6504;53.766;9.626;2022-10-19T13:10:26;2.83;;;1.00;;
12871;SDS011;6504;53.766;9.626;2022-10-19T13:12:55;3.33;;;1.10;;
12871;SDS011;6504;53.766;9.626;2022-10-19T13:21:42;1.57;;;0.90;;
12871;SDS011;6504;53.766;9.626;2022-10-19T13:24:19;2.13;;;0.80;;
12871;SDS011;6504;53.766;9.626;2022-10-19T13:30:02;2.00;;;0.93;;
12871;SDS011;6504;53.766;9.626;2022-10-19T13:32:34;2.13;;;1.07;;
12871;SDS011;6504;53.766;9.626;2022-10-19T13:38:18;3.23;;;0.93;;
12871;SDS011;6504;53.766;9.626;2022-10-19T13:40:58;1.73;;;0.80;;
12871;SDS011;6504;53.766;9.626;2022-10-19T13:43:29;0.90;;;0.60;;
12871;SDS011;6504;53.766;9.626;2022-10-19T13:46:04;1.43;;;0.63;;
12871;SDS011;6504;53.766;9.626;2022-10-19T13:51:43;2.30;;;0.93;;
12871;SDS011;6504;53.766;9.626;2022-10-19T13:54:44;2.53;;;0.80;;
12871;SDS011;6504;53.766;9.626;2022-10-19T13:57:29;1.80;;;0.77;;
12871;SDS011;6504;53.766;9.626;2022-10-19T14:00:19;1.83;;;0.87;;
12871;SDS011;6504;53.766;9.626;2022-10-19T14:02:51;2.63;;;0.70;;
12871;SDS011;6504;53.766;9.626;2022-10-19T14:05:46;2.23;;;0.90;;
12871;SDS011;6504;53.766;9.626;2022-10-19T14:08:29;1.37;;;0.87;;
12871;SDS011;6504;53.766;9.626;2022-10-19T14:11:11;1.37;;;0.90;;
12871;SDS011;6504;53.766;9.626;2022-10-19T14:13:43;1.30;;;0.70;;
12871;SDS011;6504;53.766;9.626;2022-10-19T14:16:16;1.50;;;0.70;;
12871;SDS011;6504;53.766;9.626;2022-10-19T14:18:51;1.83;;;0.70;;
12871;SDS011;6504;53.766;9.626;2022-10-19T14:21:31;2.90;;;0.83;;
12871;SDS011;6504;53.766;9.626;2022-10-19T14:24:12;1.50;;;0.63;;
12871;SDS011;6504;53.766;9.626;2022-10-19T14:26:46;1.53;;;0.60;;
12871;SDS011;6504;53.766;9.626;2022-10-19T14:29:15;0.73;;;0.70;;
12871;SDS011;6504;53.766;9.626;2022-10-19T14:31:43;1.47;;;0.77;;
12871;SDS011;6504;53.766;9.626;2022-10-19T14:34:11;1.53;;;0.70;;
12871;SDS011;6504;53.766;9.626;2022-10-19T14:36:42;1.77;;;0.70;;
12871;SDS011;6504;53.766;9.626;2022-10-19T14:39:20;2.00;;;0.70;;
12871;SDS011;6504;53.766;9.626;2022-10-19T14:41:52;1.10;;;0.70;;
12871;SDS011;6504;53.766;9.626;2022-10-19T14:44:35;1.70;;;0.80;;
12871;SDS011;6504;53.766;9.626;2022-10-19T14:47:06;1.27;;;0.60;;
12871;SDS011;6504;53.766;9.626;2022-10-19T14:49:46;2.87;;;0.80;;
12871;SDS011;6504;53.766;9.626;2022-10-19T14:52:16;1.60;;;0.77;;
12871;SDS011;6504;53.766;9.626;2022-10-19T14:54:48;1.63;;;0.80;;
12871;SDS011;6504;53.766;9.626;2022-10-19T14:57:22;3.07;;;0.83;;
12871;SDS011;6504;53.766;9.626;2022-10-19T14:59:57;2.70;;;0.77;;
12871;SDS011;6504;53.766;9.626;2022-10-19T15:02:26;3.17;;;0.80;;
12871;SDS011;6504;53.766;9.626;2022-10-19T15:04:59;2.70;;;0.87;;
12871;SDS011;6504;53.766;9.626;2022-10-19T15:07:29;0.90;;;0.83;;
12871;SDS011;6504;53.766;9.626;2022-10-19T15:10:03;1.40;;;0.90;;
12871;SDS011;6504;53.766;9.626;2022-10-19T15:12:34;1.97;;;0.90;;
12871;SDS011;6504;53.766;9.626;2022-10-19T15:15:09;2.40;;;0.80;;
12871;SDS011;6504;53.766;9.626;2022-10-19T15:17:50;1.90;;;0.80;;
12871;SDS011;6504;53.766;9.626;2022-10-19T15:20:21;1.80;;;0.77;;
12871;SDS011;6504;53.766;9.626;2022-10-19T15:22:51;1.80;;;0.80;;
12871;SDS011;6504;53.766;9.626;2022-10-19T15:31:04;1.23;;;0.90;;
12871;SDS011;6504;53.766;9.626;2022-10-19T15:33:41;1.17;;;0.70;;
12871;SDS011;6504;53.766;9.626;2022-10-19T15:36:11;3.07;;;0.80;;
12871;SDS011;6504;53.766;9.626;2022-10-19T15:38:43;1.40;;;0.90;;
12871;SDS011;6504;53.766;9.626;2022-10-19T15:41:19;1.03;;;0.87;;
12871;SDS011;6504;53.766;9.626;2022-10-19T15:43:52;1.17;;;0.77;;
12871;SDS011;6504;53.766;9.626;2022-10-19T15:46:25;0.80;;;0.73;;
12871;SDS011;6504;53.766;9.626;2022-10-19T15:48:57;1.17;;;0.80;;
12871;SDS011;6504;53.766;9.626;2022-10-19T15:51:31;1.70;;;0.80;;
12871;SDS011;6504;53.766;9.626;2022-10-19T15:54:09;0.83;;;0.70;;
12871;SDS011;6504;53.766;9.626;2022-10-19T15:56:41;1.20;;;0.80;;
12871;SDS011;6504;53.766;9.626;2022-10-19T15:59:11;1.33;;;0.67;;
12871;SDS011;6504;53.766;9.626;2022-10-19T16:01:43;1.67;;;0.87;;
12871;SDS011;6504;53.766;9.626;2022-10-19T16:04:20;1.53;;;0.70;;